sensor_id;sensor_type;location;lat;lon;timestamp;P1;durP1;ratioP1;P2;durP2;ratioP2
9374;SDS011;4727;51.202;6.344;2022-09-03T00:01:23;2.10;;;1.90;;
9374;SDS011;4727;51.202;6.344;2022-09-03T00:04:02;3.03;;;2.37;;
9374;SDS011;4727;51.202;6.344;2022-09-03T00:06:37;3.23;;;2.57;;
9374;SDS011;4727;51.202;6.344;2022-09-03T00:14:22;2.10;;;1.90;;
9374;SDS011;4727;51.202;6.344;2022-09-03T00:16:59;2.37;;;2.07;;
9374;SDS011;4727;51.202;6.344;2022-09-03T00:19:28;2.27;;;1.87;;
9374;SDS011;4727;51.202;6.344;2022-09-03T00:22:17;3.10;;;1.83;;
9374;SDS011;4727;51.202;6.344;2022-09-03T00:24:47;2.83;;;2.27;;
9374;SDS011;4727;51.202;6.344;2022-09-03T00:27:24;2.20;;;1.87;;
9374;SDS011;4727;51.202;6.344;2022-09-03T00:35:04;2.33;;;1.90;;
9374;SDS011;4727;51.202;6.344;2022-09-03T00:37:33;2.13;;;1.70;;
9374;SDS011;4727;51.202;6.344;2022-09-03T00:39:59;3.20;;;2.20;;
9374;SDS011;4727;51.202;6.344;2022-09-03T00:48:11;2.93;;;1.97;;
9374;SDS011;4727;51.202;6.344;2022-09-03T00:53:53;1.87;;;1.77;;
9374;SDS011;4727;51.202;6.344;2022-09-03T01:05:12;2.23;;;1.80;;
9374;SDS011;4727;51.202;6.344;2022-09-03T01:13:15;2.40;;;1.50;;
9374;SDS011;4727;51.202;6.344;2022-09-03T01:30:02;1.40;;;1.40;;
9374;SDS011;4727;51.202;6.344;2022-09-03T01:40:05;2.03;;;1.93;;
9374;SDS011;4727;51.202;6.344;2022-09-03T01:47:51;2.60;;;2.23;;
9374;SDS011;4727;51.202;6.344;2022-09-03T01:53:00;1.90;;;1.80;;
9374;SDS011;4727;51.202;6.344;2022-09-03T01:56:06;2.80;;;2.17;;
9374;SDS011;4727;51.202;6.344;2022-09-03T01:58:44;2.00;;;1.80;;
9374;SDS011;4727;51.202;6.344;2022-09-03T02:04:12;2.33;;;2.03;;
9374;SDS011;4727;51.202;6.344;2022-09-03T02:06:42;2.10;;;1.90;;
9374;SDS011;4727;51.202;6.344;2022-09-03T02:09:10;1.83;;;1.70;;
9374;SDS011;4727;51.202;6.344;2022-09-03T02:11:35;2.03;;;1.93;;
9374;SDS011;4727;51.202;6.344;2022-09-03T02:14:01;1.37;;;1.37;;
9374;SDS011;4727;51.202;6.344;2022-09-03T02:16:30;2.43;;;2.00;;
9374;SDS011;4727;51.202;6.344;2022-09-03T02:19:01;2.43;;;1.90;;
9374;SDS011;4727;51.202;6.344;2022-09-03T02:21:48;2.17;;;1.80;;
9374;SDS011;4727;51.202;6.344;2022-09-03T02:24:17;2.23;;;1.97;;
9374;SDS011;4727;51.202;6.344;2022-09-03T02:26:43;2.00;;;1.90;;
9374;SDS011;4727;51.202;6.344;2022-09-03T02:29:08;2.57;;;2.10;;
9374;SDS011;4727;51.202;6.344;2022-09-03T02:31:35;2.17;;;1.80;;
9374;SDS011;4727;51.202;6.344;2022-09-03T02:34:00;2.00;;;1.70;;
9374;SDS011;4727;51.202;6.344;2022-09-03T02:36:28;2.23;;;1.93;;
9374;SDS011;4727;51.202;6.344;2022-09-03T02:38:57;1.90;;;1.80;;
9374;SDS011;4727;51.202;6.344;2022-09-03T02:41:23;2.17;;;1.70;;
9374;SDS011;4727;51.202;6.344;2022-09-03T02:43:57;3.53;;;2.10;;
9374;SDS011;4727;51.202;6.344;2022-09-03T02:46:26;2.87;;;2.00;;
9374;SDS011;4727;51.202;6.344;2022-09-03T02:49:12;2.07;;;1.97;;
9374;SDS011;4727;51.202;6.344;2022-09-03T02:51:39;5.23;;;2.53;;
9374;SDS011;4727;51.202;6.344;2022-09-03T02:54:07;1.80;;;1.70;;
9374;SDS011;4727;51.202;6.344;2022-09-03T02:56:34;1.73;;;1.63;;
9374;SDS011;4727;51.202;6.344;2022-09-03T02:59:00;1.93;;;1.80;;
9374;SDS011;4727;51.202;6.344;2022-09-03T03:01:26;1.67;;;1.57;;
9374;SDS011;4727;51.202;6.344;2022-09-03T03:03:52;1.90;;;1.80;;
9374;SDS011;4727;51.202;6.344;2022-09-03T03:06:18;3.07;;;1.87;;
9374;SDS011;4727;51.202;6.344;2022-09-03T03:08:44;1.80;;;1.70;;
9374;SDS011;4727;51.202;6.344;2022-09-03T03:11:11;1.93;;;1.83;;
9374;SDS011;4727;51.202;6.344;2022-09-03T03:13:39;1.70;;;1.60;;
9374;SDS011;4727;51.202;6.344;2022-09-03T03:16:04;1.67;;;1.57;;
9374;SDS011;4727;51.202;6.344;2022-09-03T03:18:31;1.73;;;1.33;;
9374;SDS011;4727;51.202;6.344;2022-09-03T03:21:02;1.57;;;1.47;;
9374;SDS011;4727;51.202;6.344;2022-09-03T03:23:30;2.27;;;1.87;;
9374;SDS011;4727;51.202;6.344;2022-09-03T03:25:59;1.70;;;1.60;;
9374;SDS011;4727;51.202;6.344;2022-09-03T03:28:26;1.90;;;1.80;;
9374;SDS011;4727;51.202;6.344;2022-09-03T03:30:52;1.90;;;1.70;;
9374;SDS011;4727;51.202;6.344;2022-09-03T03:33:17;1.90;;;1.80;;
9374;SDS011;4727;51.202;6.344;2022-09-03T03:35:43;2.10;;;1.50;;
9374;SDS011;4727;51.202;6.344;2022-09-03T03:38:08;1.07;;;1.07;;
9374;SDS011;4727;51.202;6.344;2022-09-03T03:40:36;2.80;;;1.50;;
9374;SDS011;4727;51.202;6.344;2022-09-03T03:43:04;1.53;;;1.43;;
9374;SDS011;4727;51.202;6.344;2022-09-03T03:45:30;2.17;;;1.53;;
9374;SDS011;4727;51.202;6.344;2022-09-03T03:47:56;2.23;;;2.03;;
9374;SDS011;4727;51.202;6.344;2022-09-03T03:50:23;2.50;;;1.50;;
9374;SDS011;4727;51.202;6.344;2022-09-03T03:52:49;1.60;;;1.50;;
9374;SDS011;4727;51.202;6.344;2022-09-03T03:55:14;1.43;;;1.33;;
9374;SDS011;4727;51.202;6.344;2022-09-03T03:57:40;1.67;;;1.57;;
9374;SDS011;4727;51.202;6.344;2022-09-03T04:00:06;3.30;;;1.63;;
9374;SDS011;4727;51.202;6.344;2022-09-03T04:02:32;1.83;;;1.73;;
9374;SDS011;4727;51.202;6.344;2022-09-03T04:04:58;2.03;;;1.70;;
9374;SDS011;4727;51.202;6.344;2022-09-03T04:07:24;2.33;;;1.50;;
9374;SDS011;4727;51.202;6.344;2022-09-03T04:09:49;1.70;;;1.60;;
9374;SDS011;4727;51.202;6.344;2022-09-03T04:12:15;2.70;;;1.80;;
9374;SDS011;4727;51.202;6.344;2022-09-03T04:14:40;1.87;;;1.77;;
9374;SDS011;4727;51.202;6.344;2022-09-03T04:17:06;1.70;;;1.60;;
9374;SDS011;4727;51.202;6.344;2022-09-03T04:19:32;1.27;;;1.27;;
9374;SDS011;4727;51.202;6.344;2022-09-03T04:21:58;3.23;;;1.63;;
9374;SDS011;4727;51.202;6.344;2022-09-03T04:24:23;1.93;;;1.47;;
9374;SDS011;4727;51.202;6.344;2022-09-03T04:26:49;1.60;;;1.50;;
9374;SDS011;4727;51.202;6.344;2022-09-03T04:29:15;1.80;;;1.70;;
9374;SDS011;4727;51.202;6.344;2022-09-03T04:31:40;1.73;;;1.63;;
9374;SDS011;4727;51.202;6.344;2022-09-03T04:34:29;4.37;;;1.63;;
9374;SDS011;4727;51.202;6.344;2022-09-03T04:36:55;1.70;;;1.60;;
9374;SDS011;4727;51.202;6.344;2022-09-03T04:39:22;1.83;;;1.73;;
9374;SDS011;4727;51.202;6.344;2022-09-03T04:41:48;1.83;;;1.73;;
9374;SDS011;4727;51.202;6.344;2022-09-03T04:44:14;2.47;;;1.77;;
9374;SDS011;4727;51.202;6.344;2022-09-03T04:46:40;1.80;;;1.70;;
9374;SDS011;4727;51.202;6.344;2022-09-03T04:49:06;2.23;;;1.53;;
9374;SDS011;4727;51.202;6.344;2022-09-03T04:51:33;1.77;;;1.67;;
9374;SDS011;4727;51.202;6.344;2022-09-03T04:54:02;1.70;;;1.53;;
9374;SDS011;4727;51.202;6.344;2022-09-03T04:56:32;1.60;;;1.50;;
9374;SDS011;4727;51.202;6.344;2022-09-03T04:59:03;1.90;;;1.80;;
9374;SDS011;4727;51.202;6.344;2022-09-03T05:01:30;1.77;;;1.63;;
9374;SDS011;4727;51.202;6.344;2022-09-03T05:03:58;2.10;;;1.90;;
9374;SDS011;4727;51.202;6.344;2022-09-03T05:06:25;2.07;;;1.80;;
9374;SDS011;4727;51.202;6.344;2022-09-03T05:08:51;2.20;;;1.60;;
9374;SDS011;4727;51.202;6.344;2022-09-03T05:11:18;1.93;;;1.77;;
9374;SDS011;4727;51.202;6.344;2022-09-03T05:13:47;2.70;;;1.70;;
9374;SDS011;4727;51.202;6.344;2022-09-03T05:16:14;1.80;;;1.70;;
9374;SDS011;4727;51.202;6.344;2022-09-03T05:18:41;2.10;;;1.77;;
9374;SDS011;4727;51.202;6.344;2022-09-03T05:21:07;3.27;;;1.90;;
9374;SDS011;4727;51.202;6.344;2022-09-03T05:23:35;1.80;;;1.70;;
9374;SDS011;4727;51.202;6.344;2022-09-03T05:26:04;1.90;;;1.80;;
9374;SDS011;4727;51.202;6.344;2022-09-03T05:28:33;3.03;;;2.20;;
9374;SDS011;4727;51.202;6.344;2022-09-03T05:31:00;1.87;;;1.63;;
9374;SDS011;4727;51.202;6.344;2022-09-03T05:33:49;1.73;;;1.57;;
9374;SDS011;4727;51.202;6.344;2022-09-03T05:36:17;2.37;;;1.60;;
9374;SDS011;4727;51.202;6.344;2022-09-03T05:38:46;2.17;;;1.93;;
9374;SDS011;4727;51.202;6.344;2022-09-03T05:41:12;1.73;;;1.63;;
9374;SDS011;4727;51.202;6.344;2022-09-03T05:43:39;1.57;;;1.47;;
9374;SDS011;4727;51.202;6.344;2022-09-03T05:46:09;4.53;;;1.70;;
9374;SDS011;4727;51.202;6.344;2022-09-03T05:48:37;1.63;;;1.53;;
9374;SDS011;4727;51.202;6.344;2022-09-03T05:51:05;1.77;;;1.67;;
9374;SDS011;4727;51.202;6.344;2022-09-03T05:53:36;2.07;;;1.73;;
9374;SDS011;4727;51.202;6.344;2022-09-03T05:56:05;1.53;;;1.43;;
9374;SDS011;4727;51.202;6.344;2022-09-03T05:58:44;1.97;;;1.77;;
9374;SDS011;4727;51.202;6.344;2022-09-03T06:03:41;1.70;;;1.60;;
9374;SDS011;4727;51.202;6.344;2022-09-03T06:06:07;1.87;;;1.77;;
9374;SDS011;4727;51.202;6.344;2022-09-03T06:08:33;1.53;;;1.43;;
9374;SDS011;4727;51.202;6.344;2022-09-03T06:11:01;1.60;;;1.50;;
9374;SDS011;4727;51.202;6.344;2022-09-03T06:13:28;1.90;;;1.77;;
9374;SDS011;4727;51.202;6.344;2022-09-03T06:15:59;3.07;;;1.73;;
9374;SDS011;4727;51.202;6.344;2022-09-03T06:18:26;1.77;;;1.67;;
9374;SDS011;4727;51.202;6.344;2022-09-03T06:20:56;1.77;;;1.57;;
9374;SDS011;4727;51.202;6.344;2022-09-03T06:23:24;3.17;;;1.57;;
9374;SDS011;4727;51.202;6.344;2022-09-03T06:28:30;2.97;;;1.60;;
9374;SDS011;4727;51.202;6.344;2022-09-03T06:31:05;2.10;;;1.90;;
9374;SDS011;4727;51.202;6.344;2022-09-03T06:33:35;2.50;;;1.90;;
9374;SDS011;4727;51.202;6.344;2022-09-03T06:36:02;1.70;;;1.60;;
9374;SDS011;4727;51.202;6.344;2022-09-03T06:38:30;1.60;;;1.60;;
9374;SDS011;4727;51.202;6.344;2022-09-03T06:41:00;4.07;;;2.10;;
9374;SDS011;4727;51.202;6.344;2022-09-03T06:43:31;3.43;;;1.90;;
9374;SDS011;4727;51.202;6.344;2022-09-03T06:45:59;2.63;;;1.73;;
9374;SDS011;4727;51.202;6.344;2022-09-03T06:48:30;1.97;;;1.77;;
9374;SDS011;4727;51.202;6.344;2022-09-03T06:50:57;1.90;;;1.80;;
9374;SDS011;4727;51.202;6.344;2022-09-03T06:53:28;3.13;;;1.87;;
9374;SDS011;4727;51.202;6.344;2022-09-03T06:55:57;2.80;;;2.10;;
9374;SDS011;4727;51.202;6.344;2022-09-03T06:58:24;2.17;;;1.93;;
9374;SDS011;4727;51.202;6.344;2022-09-03T07:00:52;3.27;;;2.40;;
9374;SDS011;4727;51.202;6.344;2022-09-03T07:03:19;3.77;;;1.83;;
9374;SDS011;4727;51.202;6.344;2022-09-03T07:05:45;1.60;;;1.43;;
9374;SDS011;4727;51.202;6.344;2022-09-03T07:08:11;2.93;;;2.00;;
9374;SDS011;4727;51.202;6.344;2022-09-03T07:10:37;1.97;;;1.80;;
9374;SDS011;4727;51.202;6.344;2022-09-03T07:13:03;3.03;;;1.90;;
9374;SDS011;4727;51.202;6.344;2022-09-03T07:15:31;3.33;;;2.10;;
9374;SDS011;4727;51.202;6.344;2022-09-03T07:17:58;3.03;;;2.00;;
9374;SDS011;4727;51.202;6.344;2022-09-03T07:20:24;2.17;;;1.80;;
9374;SDS011;4727;51.202;6.344;2022-09-03T07:22:53;2.43;;;1.63;;
9374;SDS011;4727;51.202;6.344;2022-09-03T07:25:20;4.73;;;1.87;;
9374;SDS011;4727;51.202;6.344;2022-09-03T07:27:46;1.80;;;1.70;;
9374;SDS011;4727;51.202;6.344;2022-09-03T07:30:12;3.40;;;1.90;;
9374;SDS011;4727;51.202;6.344;2022-09-03T07:32:38;2.43;;;1.90;;
9374;SDS011;4727;51.202;6.344;2022-09-03T07:35:04;4.13;;;2.10;;
9374;SDS011;4727;51.202;6.344;2022-09-03T07:37:31;1.70;;;1.60;;
9374;SDS011;4727;51.202;6.344;2022-09-03T07:39:57;1.70;;;1.60;;
9374;SDS011;4727;51.202;6.344;2022-09-03T07:42:23;2.60;;;1.97;;
9374;SDS011;4727;51.202;6.344;2022-09-03T07:44:51;1.90;;;1.80;;
9374;SDS011;4727;51.202;6.344;2022-09-03T07:47:16;3.30;;;2.10;;
9374;SDS011;4727;51.202;6.344;2022-09-03T07:49:42;1.73;;;1.63;;
9374;SDS011;4727;51.202;6.344;2022-09-03T07:52:07;3.00;;;2.00;;
9374;SDS011;4727;51.202;6.344;2022-09-03T07:54:33;2.40;;;1.63;;
9374;SDS011;4727;51.202;6.344;2022-09-03T07:56:59;2.77;;;2.00;;
9374;SDS011;4727;51.202;6.344;2022-09-03T07:59:25;2.30;;;1.90;;
9374;SDS011;4727;51.202;6.344;2022-09-03T08:01:51;6.90;;;2.17;;
9374;SDS011;4727;51.202;6.344;2022-09-03T08:04:16;2.90;;;1.90;;
9374;SDS011;4727;51.202;6.344;2022-09-03T08:06:42;2.53;;;2.20;;
9374;SDS011;4727;51.202;6.344;2022-09-03T08:09:08;2.23;;;2.13;;
9374;SDS011;4727;51.202;6.344;2022-09-03T08:11:38;4.93;;;2.27;;
9374;SDS011;4727;51.202;6.344;2022-09-03T08:14:06;6.97;;;2.23;;
9374;SDS011;4727;51.202;6.344;2022-09-03T08:16:34;1.93;;;1.73;;
9374;SDS011;4727;51.202;6.344;2022-09-03T08:19:02;2.17;;;1.97;;
9374;SDS011;4727;51.202;6.344;2022-09-03T08:21:28;2.33;;;2.03;;
9374;SDS011;4727;51.202;6.344;2022-09-03T08:23:55;6.30;;;2.47;;
9374;SDS011;4727;51.202;6.344;2022-09-03T08:26:27;4.43;;;2.00;;
9374;SDS011;4727;51.202;6.344;2022-09-03T08:28:57;5.80;;;2.13;;
9374;SDS011;4727;51.202;6.344;2022-09-03T08:31:23;2.10;;;1.63;;
9374;SDS011;4727;51.202;6.344;2022-09-03T08:33:51;3.33;;;2.03;;
9374;SDS011;4727;51.202;6.344;2022-09-03T08:36:18;4.03;;;2.17;;
9374;SDS011;4727;51.202;6.344;2022-09-03T08:38:49;2.73;;;1.80;;
9374;SDS011;4727;51.202;6.344;2022-09-03T08:44:27;2.50;;;1.90;;
9374;SDS011;4727;51.202;6.344;2022-09-03T08:47:16;7.90;;;2.00;;
9374;SDS011;4727;51.202;6.344;2022-09-03T08:50:10;3.60;;;2.23;;
9374;SDS011;4727;51.202;6.344;2022-09-03T08:55:50;1.95;;;1.75;;
9374;SDS011;4727;51.202;6.344;2022-09-03T08:58:19;3.63;;;2.22;;
9374;SDS011;4727;51.202;6.344;2022-09-03T09:00:58;2.60;;;2.00;;
9374;SDS011;4727;51.202;6.344;2022-09-03T09:12:12;2.88;;;1.88;;
9374;SDS011;4727;51.202;6.344;2022-09-03T09:14:49;2.30;;;2.10;;
9374;SDS011;4727;51.202;6.344;2022-09-03T09:23:07;2.30;;;2.10;;
9374;SDS011;4727;51.202;6.344;2022-09-03T09:25:48;4.80;;;2.00;;
9374;SDS011;4727;51.202;6.344;2022-09-03T09:28:21;2.90;;;2.25;;
9374;SDS011;4727;51.202;6.344;2022-09-03T09:30:49;2.72;;;2.35;;
9374;SDS011;4727;51.202;6.344;2022-09-03T09:33:18;2.60;;;2.35;;
9374;SDS011;4727;51.202;6.344;2022-09-03T09:35:45;3.22;;;2.30;;
9374;SDS011;4727;51.202;6.344;2022-09-03T09:38:11;2.72;;;2.20;;
9374;SDS011;4727;51.202;6.344;2022-09-03T09:40:38;3.58;;;2.00;;
9374;SDS011;4727;51.202;6.344;2022-09-03T09:43:16;4.50;;;2.20;;
9374;SDS011;4727;51.202;6.344;2022-09-03T09:45:46;2.60;;;2.40;;
9374;SDS011;4727;51.202;6.344;2022-09-03T09:48:19;2.35;;;2.10;;
9374;SDS011;4727;51.202;6.344;2022-09-03T09:51:05;3.60;;;2.17;;
9374;SDS011;4727;51.202;6.344;2022-09-03T09:53:35;4.18;;;2.40;;
9374;SDS011;4727;51.202;6.344;2022-09-03T09:56:01;3.25;;;2.38;;
9374;SDS011;4727;51.202;6.344;2022-09-03T09:58:27;4.82;;;2.17;;
9374;SDS011;4727;51.202;6.344;2022-09-03T10:00:59;2.95;;;2.58;;
9374;SDS011;4727;51.202;6.344;2022-09-03T10:03:31;3.50;;;2.35;;
9374;SDS011;4727;51.202;6.344;2022-09-03T10:06:03;4.95;;;2.42;;
9374;SDS011;4727;51.202;6.344;2022-09-03T10:08:49;3.60;;;2.28;;
9374;SDS011;4727;51.202;6.344;2022-09-03T10:11:16;3.40;;;2.50;;
9374;SDS011;4727;51.202;6.344;2022-09-03T10:13:44;2.95;;;2.42;;
9374;SDS011;4727;51.202;6.344;2022-09-03T10:16:26;2.85;;;2.28;;
9374;SDS011;4727;51.202;6.344;2022-09-03T10:21:40;3.85;;;2.55;;
9374;SDS011;4727;51.202;6.344;2022-09-03T10:26:50;3.72;;;2.90;;
9374;SDS011;4727;51.202;6.344;2022-09-03T10:29:17;3.80;;;2.70;;
9374;SDS011;4727;51.202;6.344;2022-09-03T10:31:56;2.60;;;2.50;;
9374;SDS011;4727;51.202;6.344;2022-09-03T10:37:34;3.30;;;2.65;;
9374;SDS011;4727;51.202;6.344;2022-09-03T10:45:48;2.47;;;2.30;;
9374;SDS011;4727;51.202;6.344;2022-09-03T10:51:05;2.95;;;2.60;;
9374;SDS011;4727;51.202;6.344;2022-09-03T10:56:33;2.45;;;2.25;;
9374;SDS011;4727;51.202;6.344;2022-09-03T11:05:18;3.00;;;2.80;;
9374;SDS011;4727;51.202;6.344;2022-09-03T11:10:31;2.60;;;2.40;;
9374;SDS011;4727;51.202;6.344;2022-09-03T11:13:01;5.18;;;2.50;;
9374;SDS011;4727;51.202;6.344;2022-09-03T11:15:41;3.75;;;2.90;;
9374;SDS011;4727;51.202;6.344;2022-09-03T11:18:34;4.28;;;2.58;;
9374;SDS011;4727;51.202;6.344;2022-09-03T11:21:15;5.80;;;3.35;;
9374;SDS011;4727;51.202;6.344;2022-09-03T11:23:46;3.97;;;2.47;;
9374;SDS011;4727;51.202;6.344;2022-09-03T11:26:16;3.85;;;2.60;;
9374;SDS011;4727;51.202;6.344;2022-09-03T11:34:14;3.72;;;2.80;;
9374;SDS011;4727;51.202;6.344;2022-09-03T11:36:51;4.63;;;2.92;;
9374;SDS011;4727;51.202;6.344;2022-09-03T11:42:00;3.60;;;2.65;;
9374;SDS011;4727;51.202;6.344;2022-09-03T11:44:49;4.15;;;2.60;;
9374;SDS011;4727;51.202;6.344;2022-09-03T11:49:45;4.05;;;2.90;;
9374;SDS011;4727;51.202;6.344;2022-09-03T11:52:23;2.58;;;2.38;;
9374;SDS011;4727;51.202;6.344;2022-09-03T11:54:53;5.22;;;2.60;;
9374;SDS011;4727;51.202;6.344;2022-09-03T11:57:29;3.47;;;3.28;;
9374;SDS011;4727;51.202;6.344;2022-09-03T12:00:06;3.00;;;2.80;;
9374;SDS011;4727;51.202;6.344;2022-09-03T12:02:35;4.30;;;3.28;;
9374;SDS011;4727;51.202;6.344;2022-09-03T12:19:38;4.28;;;2.92;;
9374;SDS011;4727;51.202;6.344;2022-09-03T12:22:12;2.72;;;2.42;;
9374;SDS011;4727;51.202;6.344;2022-09-03T12:24:39;2.50;;;2.30;;
9374;SDS011;4727;51.202;6.344;2022-09-03T12:27:09;3.17;;;2.90;;
9374;SDS011;4727;51.202;6.344;2022-09-03T12:29:48;2.80;;;2.58;;
9374;SDS011;4727;51.202;6.344;2022-09-03T12:32:32;3.33;;;3.03;;
9374;SDS011;4727;51.202;6.344;2022-09-03T12:37:38;3.10;;;2.83;;
9374;SDS011;4727;51.202;6.344;2022-09-03T12:40:14;2.63;;;2.42;;
9374;SDS011;4727;51.202;6.344;2022-09-03T12:42:45;2.58;;;2.40;;
9374;SDS011;4727;51.202;6.344;2022-09-03T12:45:11;3.20;;;2.95;;
9374;SDS011;4727;51.202;6.344;2022-09-03T12:47:40;2.90;;;2.70;;
9374;SDS011;4727;51.202;6.344;2022-09-03T12:50:17;2.72;;;2.60;;
9374;SDS011;4727;51.202;6.344;2022-09-03T12:52:54;3.00;;;2.80;;
9374;SDS011;4727;51.202;6.344;2022-09-03T12:58:15;2.67;;;2.47;;
9374;SDS011;4727;51.202;6.344;2022-09-03T13:00:46;2.75;;;2.60;;
9374;SDS011;4727;51.202;6.344;2022-09-03T13:05:51;4.18;;;2.75;;
9374;SDS011;4727;51.202;6.344;2022-09-03T13:08:22;3.67;;;3.15;;
9374;SDS011;4727;51.202;6.344;2022-09-03T13:10:57;2.83;;;2.53;;
9374;SDS011;4727;51.202;6.344;2022-09-03T13:13:30;2.88;;;2.67;;
9374;SDS011;4727;51.202;6.344;2022-09-03T13:18:53;2.60;;;2.50;;
9374;SDS011;4727;51.202;6.344;2022-09-03T13:21:45;2.78;;;2.67;;
9374;SDS011;4727;51.202;6.344;2022-09-03T13:30:15;3.00;;;2.80;;
9374;SDS011;4727;51.202;6.344;2022-09-03T13:38:06;2.90;;;2.70;;
9374;SDS011;4727;51.202;6.344;2022-09-03T13:43:32;3.40;;;3.15;;
9374;SDS011;4727;51.202;6.344;2022-09-03T13:46:15;2.92;;;2.80;;
9374;SDS011;4727;51.202;6.344;2022-09-03T13:48:48;2.80;;;2.70;;
9374;SDS011;4727;51.202;6.344;2022-09-03T13:51:50;3.30;;;3.10;;
9374;SDS011;4727;51.202;6.344;2022-09-03T13:54:29;2.95;;;2.75;;
9374;SDS011;4727;51.202;6.344;2022-09-03T14:00:29;3.15;;;2.80;;
9374;SDS011;4727;51.202;6.344;2022-09-03T14:02:44;2.70;;;2.50;;
9374;SDS011;4727;51.202;6.344;2022-09-03T14:11:04;3.30;;;2.80;;
9374;SDS011;4727;51.202;6.344;2022-09-03T14:16:34;3.55;;;3.15;;
9374;SDS011;4727;51.202;6.344;2022-09-03T14:19:11;2.83;;;2.63;;
9374;SDS011;4727;51.202;6.344;2022-09-03T14:21:48;3.20;;;2.90;;
9374;SDS011;4727;51.202;6.344;2022-09-03T14:24:35;2.78;;;2.47;;
9374;SDS011;4727;51.202;6.344;2022-09-03T14:27:27;2.97;;;2.75;;
9374;SDS011;4727;51.202;6.344;2022-09-03T14:30:02;3.33;;;3.03;;
9374;SDS011;4727;51.202;6.344;2022-09-03T14:37:55;2.95;;;2.72;;
9374;SDS011;4727;51.202;6.344;2022-09-03T14:40:44;3.03;;;2.83;;
9374;SDS011;4727;51.202;6.344;2022-09-03T14:48:41;3.00;;;2.70;;
9374;SDS011;4727;51.202;6.344;2022-09-03T14:54:02;3.13;;;2.83;;
9374;SDS011;4727;51.202;6.344;2022-09-03T14:56:54;2.97;;;2.78;;
9374;SDS011;4727;51.202;6.344;2022-09-03T15:07:48;3.63;;;3.33;;
9374;SDS011;4727;51.202;6.344;2022-09-03T15:19:25;3.25;;;3.05;;
9374;SDS011;4727;51.202;6.344;2022-09-03T15:24:36;3.55;;;3.25;;
9374;SDS011;4727;51.202;6.344;2022-09-03T15:30:07;3.50;;;3.30;;
9374;SDS011;4727;51.202;6.344;2022-09-03T15:32:43;6.25;;;3.40;;
9374;SDS011;4727;51.202;6.344;2022-09-03T15:39:21;3.35;;;3.15;;
9374;SDS011;4727;51.202;6.344;2022-09-03T15:44:05;3.13;;;2.90;;
9374;SDS011;4727;51.202;6.344;2022-09-03T15:46:39;3.50;;;2.92;;
9374;SDS011;4727;51.202;6.344;2022-09-03T15:49:30;3.55;;;3.25;;
9374;SDS011;4727;51.202;6.344;2022-09-03T16:02:39;3.42;;;3.22;;
9374;SDS011;4727;51.202;6.344;2022-09-03T16:05:08;3.70;;;3.38;;
9374;SDS011;4727;51.202;6.344;2022-09-03T16:16:26;3.80;;;3.47;;
9374;SDS011;4727;51.202;6.344;2022-09-03T16:19:10;3.00;;;2.80;;
9374;SDS011;4727;51.202;6.344;2022-09-03T16:21:45;4.68;;;3.15;;
9374;SDS011;4727;51.202;6.344;2022-09-03T16:27:22;3.72;;;3.13;;
9374;SDS011;4727;51.202;6.344;2022-09-03T16:52:14;3.85;;;3.20;;
9374;SDS011;4727;51.202;6.344;2022-09-03T17:12:51;3.70;;;3.40;;
9374;SDS011;4727;51.202;6.344;2022-09-03T17:18:18;3.50;;;3.30;;
9374;SDS011;4727;51.202;6.344;2022-09-03T17:20:48;4.05;;;3.75;;
9374;SDS011;4727;51.202;6.344;2022-09-03T17:32:27;3.92;;;3.20;;
9374;SDS011;4727;51.202;6.344;2022-09-03T17:37:56;3.50;;;3.20;;
9374;SDS011;4727;51.202;6.344;2022-09-03T17:40:40;4.53;;;3.58;;
9374;SDS011;4727;51.202;6.344;2022-09-03T17:43:14;3.60;;;3.40;;
9374;SDS011;4727;51.202;6.344;2022-09-03T17:46:02;7.35;;;3.50;;
9374;SDS011;4727;51.202;6.344;2022-09-03T17:53:47;3.83;;;3.33;;
9374;SDS011;4727;51.202;6.344;2022-09-03T17:56:24;3.67;;;3.38;;
9374;SDS011;4727;51.202;6.344;2022-09-03T17:59:12;3.60;;;3.10;;
9374;SDS011;4727;51.202;6.344;2022-09-03T18:01:51;3.42;;;3.08;;
9374;SDS011;4727;51.202;6.344;2022-09-03T18:04:41;4.10;;;3.08;;
9374;SDS011;4727;51.202;6.344;2022-09-03T18:13:44;3.50;;;3.20;;
9374;SDS011;4727;51.202;6.344;2022-09-03T18:15:56;3.67;;;3.28;;
9374;SDS011;4727;51.202;6.344;2022-09-03T18:18:31;3.35;;;3.03;;
9374;SDS011;4727;51.202;6.344;2022-09-03T18:21:02;3.25;;;3.03;;
9374;SDS011;4727;51.202;6.344;2022-09-03T18:23:53;3.25;;;3.05;;
9374;SDS011;4727;51.202;6.344;2022-09-03T18:27:00;3.55;;;3.20;;
9374;SDS011;4727;51.202;6.344;2022-09-03T18:30:09;3.20;;;2.90;;
9374;SDS011;4727;51.202;6.344;2022-09-03T18:32:53;4.18;;;3.20;;
9374;SDS011;4727;51.202;6.344;2022-09-03T18:35:39;3.30;;;2.90;;
9374;SDS011;4727;51.202;6.344;2022-09-03T18:38:29;4.75;;;3.20;;
9374;SDS011;4727;51.202;6.344;2022-09-03T18:53:30;3.83;;;3.00;;
9374;SDS011;4727;51.202;6.344;2022-09-03T18:56:28;3.35;;;3.05;;
9374;SDS011;4727;51.202;6.344;2022-09-03T19:11:27;3.53;;;3.22;;
9374;SDS011;4727;51.202;6.344;2022-09-03T19:20:27;3.40;;;3.20;;
9374;SDS011;4727;51.202;6.344;2022-09-03T19:23:13;6.63;;;3.38;;
9374;SDS011;4727;51.202;6.344;2022-09-03T19:26:00;3.35;;;3.10;;
9374;SDS011;4727;51.202;6.344;2022-09-03T19:28:55;3.35;;;3.15;;
9374;SDS011;4727;51.202;6.344;2022-09-03T19:31:49;3.30;;;3.10;;
9374;SDS011;4727;51.202;6.344;2022-09-03T19:34:54;2.95;;;2.78;;
9374;SDS011;4727;51.202;6.344;2022-09-03T19:41:11;2.92;;;2.72;;
9374;SDS011;4727;51.202;6.344;2022-09-03T19:44:12;3.65;;;3.17;;
9374;SDS011;4727;51.202;6.344;2022-09-03T19:47:15;2.85;;;2.75;;
9374;SDS011;4727;51.202;6.344;2022-09-03T19:50:17;4.43;;;3.28;;
9374;SDS011;4727;51.202;6.344;2022-09-03T19:53:11;4.47;;;3.30;;
9374;SDS011;4727;51.202;6.344;2022-09-03T19:56:01;3.20;;;3.00;;
9374;SDS011;4727;51.202;6.344;2022-09-03T19:58:56;3.90;;;3.70;;
9374;SDS011;4727;51.202;6.344;2022-09-03T20:01:43;3.97;;;3.63;;
9374;SDS011;4727;51.202;6.344;2022-09-03T20:04:40;4.00;;;3.70;;
9374;SDS011;4727;51.202;6.344;2022-09-03T20:07:48;3.88;;;3.35;;
9374;SDS011;4727;51.202;6.344;2022-09-03T20:10:34;3.83;;;3.53;;
9374;SDS011;4727;51.202;6.344;2022-09-03T20:15:37;3.83;;;3.53;;
9374;SDS011;4727;51.202;6.344;2022-09-03T20:37:30;3.97;;;3.70;;
9374;SDS011;4727;51.202;6.344;2022-09-03T20:43:04;4.28;;;3.88;;
9374;SDS011;4727;51.202;6.344;2022-09-03T20:45:57;3.85;;;3.47;;
9374;SDS011;4727;51.202;6.344;2022-09-03T20:51:49;4.55;;;4.15;;
9374;SDS011;4727;51.202;6.344;2022-09-03T20:54:25;4.00;;;3.70;;
9374;SDS011;4727;51.202;6.344;2022-09-03T20:57:08;4.40;;;4.10;;
9374;SDS011;4727;51.202;6.344;2022-09-03T21:05:31;4.65;;;4.30;;
9374;SDS011;4727;51.202;6.344;2022-09-03T21:08:21;4.33;;;3.70;;
9374;SDS011;4727;51.202;6.344;2022-09-03T21:16:20;5.73;;;4.00;;
9374;SDS011;4727;51.202;6.344;2022-09-03T21:24:07;5.00;;;4.50;;
9374;SDS011;4727;51.202;6.344;2022-09-03T21:26:41;4.93;;;4.43;;
9374;SDS011;4727;51.202;6.344;2022-09-03T21:34:49;5.00;;;4.60;;
9374;SDS011;4727;51.202;6.344;2022-09-03T21:37:18;4.80;;;4.40;;
9374;SDS011;4727;51.202;6.344;2022-09-03T21:39:48;4.83;;;4.43;;
9374;SDS011;4727;51.202;6.344;2022-09-03T21:44:59;5.00;;;4.57;;
9374;SDS011;4727;51.202;6.344;2022-09-03T21:47:31;5.30;;;4.80;;
9374;SDS011;4727;51.202;6.344;2022-09-03T21:55:12;5.20;;;4.80;;
9374;SDS011;4727;51.202;6.344;2022-09-03T21:58:15;5.60;;;5.13;;
9374;SDS011;4727;51.202;6.344;2022-09-03T22:00:42;5.38;;;4.97;;
9374;SDS011;4727;51.202;6.344;2022-09-03T22:03:10;5.37;;;4.87;;
9374;SDS011;4727;51.202;6.344;2022-09-03T22:05:47;5.75;;;5.10;;
9374;SDS011;4727;51.202;6.344;2022-09-03T22:11:03;6.07;;;5.47;;
9374;SDS011;4727;51.202;6.344;2022-09-03T22:14:09;6.13;;;5.30;;
9374;SDS011;4727;51.202;6.344;2022-09-03T22:16:58;5.77;;;5.23;;
9374;SDS011;4727;51.202;6.344;2022-09-03T22:19:39;5.53;;;5.00;;
9374;SDS011;4727;51.202;6.344;2022-09-03T22:22:19;5.80;;;5.30;;
9374;SDS011;4727;51.202;6.344;2022-09-03T22:24:54;6.30;;;5.80;;
9374;SDS011;4727;51.202;6.344;2022-09-03T22:30:11;6.33;;;5.83;;
9374;SDS011;4727;51.202;6.344;2022-09-03T22:41:34;6.10;;;5.50;;
9374;SDS011;4727;51.202;6.344;2022-09-03T22:44:23;6.47;;;5.87;;
9374;SDS011;4727;51.202;6.344;2022-09-03T22:49:41;6.10;;;5.60;;
9374;SDS011;4727;51.202;6.344;2022-09-03T22:55:15;6.60;;;5.90;;
9374;SDS011;4727;51.202;6.344;2022-09-03T22:58:02;6.10;;;5.53;;
9374;SDS011;4727;51.202;6.344;2022-09-03T23:00:45;6.13;;;5.63;;